Latest Weather Observations for Merimbula

IDN60801

Issued at 12:32 am EDT Wednesday 13 December 2017 (issued every 30 minutes, with the page automatically refreshed every 10 minutes)

About weather observations | Map of weather stations | Latest weather observations for NSW | Other Formats
Station Details ID: 069147 Name: MERIMBULA AIRPORT AWS Lat: -36.91 Lon: 149.90 Height: 1.5 m
Data from the previous 72 hours. | See also: Recent months at Merimbula
Date/Time
EDT
Temp
°C
App
Temp
°C
Dew
Point
°C
Rel
Hum
%
Delta-T
°C
Wind Press
QNH
hPa
Press
MSL
hPa
Rain since
9am
mm
Dir  Spd
km/h
Gust
km/h
Spd
kts
Gust
kts
13/12:30am 17.4 19.6 16.4 94 0.6 CALM 0 0 0 0 1015.3 1015.3 0.0
13/12:21am 17.1 19.1 16.1 94 0.6 CALM 0 0 0 0 1015.4 1015.4 0.0
13/12:00am 16.7 18.5 15.4 92 0.8 CALM 0 0 0 0 1015.8 1015.8 0.0
 
Date/Time
EDT
Temp
°C
App
Temp
°C
Dew
Point
°C
Rel
Hum
%
Delta-T
°C
Wind Press
QNH
hPa
Press
MSL
hPa
Rain since
9am
mm
Dir  Spd
km/h
Gust
km/h
Spd
kts
Gust
kts
12/11:30pm 17.2 19.0 15.5 90 1.0 CALM 0 0 0 0 1016.0 1016.0 0.0
12/11:11pm 17.7 19.7 16.0 90 1.0 CALM 0 0 0 0 1016.3 1016.3 0.0
12/11:00pm 18.0 20.1 16.3 90 1.0 CALM 0 0 0 0 1016.3 1016.3 0.0
12/10:30pm 18.9 21.6 17.7 93 0.7 CALM 0 0 0 0 1016.5 1016.5 0.0
12/10:05pm 18.6 21.2 17.6 94 0.6 CALM 0 6 0 3 1016.6 1016.6 0.0
12/10:00pm 18.4 21.0 17.4 94 0.6 CALM 0 0 0 0 1016.6 1016.6 0.0
12/09:30pm 18.0 20.3 16.7 92 0.8 CALM 0 0 0 0 1016.6 1016.6 0.0
12/09:15pm 17.9 20.1 16.4 91 0.9 CALM 0 0 0 0 1016.5 1016.5 0.0
12/09:00pm 18.0 20.1 16.3 90 1.0 CALM 0 0 0 0 1016.4 1016.4 0.0
12/08:30pm 18.5 20.6 16.3 87 1.3 CALM 0 0 0 0 1016.4 1016.4 0.0
12/08:00pm 19.4 21.8 17.0 86 1.5 CALM 0 0 0 0 1016.3 1016.3 0.0
12/07:30pm 20.6 23.4 18.0 85 1.6 CALM 0 0 0 0 1016.3 1016.3 0.0
12/07:23pm 20.6 23.4 18.0 85 1.6 CALM 0 0 0 0 1016.3 1016.3 0.0
12/07:00pm 20.7 23.6 18.1 85 1.6 CALM 0 2 0 1 1016.2 1016.2 0.0
12/06:47pm 20.7 23.5 17.9 84 1.7 CALM 0 6 0 3 1016.0 1016.0 0.0
12/06:36pm 20.7 22.3 17.9 84 1.7 SE 6 9 3 5 1015.9 1015.9 0.0
12/06:30pm 20.6 22.9 17.8 84 1.7 SSE 2 9 1 5 1015.9 1015.9 0.0
12/06:00pm 20.3 21.2 17.5 84 1.7 SSE 9 13 5 7 1016.0 1016.0 0.0
12/05:30pm 20.1 21.3 17.3 84 1.7 S 7 11 4 6 1015.9 1015.9 0.0
12/05:00pm 20.1 21.2 17.1 83 1.8 S 7 11 4 6 1016.1 1016.1 0.0
12/04:30pm 20.1 20.8 17.1 83 1.8 SSE 9 11 5 6 1016.2 1016.2 0.0
12/04:00pm 20.2 21.2 16.8 81 2.1 SSE 7 11 4 6 1016.5 1016.5 0.0
12/03:30pm 20.6 20.8 16.8 79 2.3 ESE 11 17 6 9 1016.5 1016.5 0.0
12/03:00pm 21.2 21.5 17.0 77 2.6 E 11 20 6 11 1016.6 1016.6 0.0
12/02:36pm 21.5 21.2 16.5 73 3.0 ENE 13 20 7 11 1016.5 1016.5 0.0
12/02:30pm 21.7 21.6 16.9 74 2.9 E 13 20 7 11 1016.6 1016.6 0.0
12/02:19pm 22.1 21.6 17.0 73 3.1 E 15 20 8 11 1016.5 1016.5 0.0
12/02:00pm 21.9 21.7 17.5 76 2.7 ENE 15 20 8 11 1016.8 1016.8 0.0
12/01:30pm 21.4 21.3 17.0 76 2.7 E 13 20 7 11 1017.1 1017.1 0.0
12/01:00pm 20.9 21.2 17.1 79 2.3 E 11 17 6 9 1017.5 1017.5 0.0
12/12:30pm 20.4 21.0 16.8 80 2.2 E 9 15 5 8 1018.0 1018.0 0.0
12/12:00pm 20.1 19.8 16.5 80 2.2 E 13 17 7 9 1018.1 1018.1 0.0
12/11:30am 19.6 20.5 16.6 83 1.8 ENE 7 11 4 6 1018.2 1018.2 0.0
12/11:00am 19.5 20.2 16.2 81 2.0 SE 7 11 4 6 1018.5 1018.5 0.0
12/10:30am 19.5 19.9 16.2 81 2.0 SE 9 11 5 6 1018.7 1018.7 0.0
12/10:00am 19.6 21.3 16.3 81 2.0 SE 2 11 1 6 1018.9 1018.9 0.0
12/09:30am 18.9 20.8 15.8 82 1.8 CALM 0 0 0 0 1019.1 1019.1 0.0
12/09:00am 18.7 20.7 15.9 84 1.7 CALM 0 0 0 0 1019.3 1019.3 0.0
12/08:30am 18.2 20.0 15.5 84 1.6 CALM 0 0 0 0 1019.3 1019.3 0.0
12/08:00am 18.1 19.9 15.5 85 1.5 CALM 0 0 0 0 1019.1 1019.1 0.0
12/07:30am 17.8 19.5 15.2 85 1.5 CALM 0 0 0 0 1019.0 1019.0 0.0
12/07:00am 17.7 19.4 15.1 85 1.5 CALM 0 0 0 0 1018.7 1018.7 0.0
12/06:30am 17.6 19.3 15.2 86 1.4 CALM 0 0 0 0 1018.6 1018.6 0.0
12/06:00am 17.5 19.2 15.1 86 1.4 CALM 0 0 0 0 1018.5 1018.5 0.0
12/05:30am 17.4 19.1 15.2 87 1.3 CALM 0 0 0 0 1018.5 1018.5 0.0
12/05:00am 17.4 19.1 15.2 87 1.3 CALM 0 0 0 0 1018.3 1018.3 0.0
12/04:30am 17.5 19.2 15.3 87 1.3 CALM 0 0 0 0 1018.1 1018.1 0.0
12/04:00am 17.6 19.4 15.4 87 1.3 CALM 0 0 0 0 1018.2 1018.2 0.0
12/03:30am 17.6 19.3 15.2 86 1.4 CALM 0 0 0 0 1018.4 1018.4 0.0
12/03:14am 17.6 19.3 15.2 86 1.4 CALM 0 0 0 0 1018.6 1018.6 0.0
12/03:00am 17.6 19.3 15.2 86 1.4 CALM 0 0 0 0 1018.7 1018.7 0.0
12/02:30am 17.6 19.3 15.2 86 1.4 CALM 0 0 0 0 1019.0 1019.0 0.0
12/02:13am 17.6 19.2 15.0 85 1.5 CALM 0 0 0 0 1019.3 1019.3 0.0
12/02:00am 17.6 19.3 15.2 86 1.4 CALM 0 0 0 0 1019.4 1019.4 0.0
12/01:50am 17.7 19.4 15.1 85 1.5 CALM 0 0 0 0 1019.5 1019.5 0.0
12/01:30am 17.6 19.2 15.0 85 1.5 CALM 0 0 0 0 1019.6 1019.6 0.0
12/01:00am 17.6 19.3 15.2 86 1.4 CALM 0 0 0 0 1020.0 1020.0 0.0
12/12:30am 17.7 19.4 15.1 85 1.5 CALM 0 0 0 0 1020.3 1020.3 0.0
12/12:00am 17.8 19.5 15.1 84 1.6 CALM 0 0 0 0 1020.4 1020.4 0.0
 
Date/Time
EDT
Temp
°C
App
Temp
°C
Dew
Point
°C
Rel
Hum
%
Delta-T
°C
Wind Press
QNH
hPa
Press
MSL
hPa
Rain since
9am
mm
Dir  Spd
km/h
Gust
km/h
Spd
kts
Gust
kts
11/11:53pm 17.8 19.5 15.1 84 1.6 CALM 0 0 0 0 1020.5 1020.5 0.0
11/11:30pm 17.9 19.1 15.0 83 1.7 SW 2 9 1 5 1020.7 1020.7 0.0
11/11:00pm 18.3 19.9 14.8 80 2.0 CALM 0 0 0 0 1020.9 1020.9 0.0
11/10:30pm 18.3 19.9 14.8 80 2.0 CALM 0 0 0 0 1021.0 1021.0 0.0
11/10:00pm 18.4 19.9 14.7 79 2.1 CALM 0 0 0 0 1020.9 1020.9 0.0
11/09:45pm 18.4 19.9 14.7 79 2.1 CALM 0 0 0 0 1020.8 1020.8 0.0
11/09:30pm 18.5 20.0 14.6 78 2.3 CALM 0 6 0 3 1020.7 1020.7 0.0
11/09:00pm 18.6 18.7 14.5 77 2.4 SSE 7 11 4 6 1020.5 1020.5 0.0
11/08:30pm 18.6 18.8 14.7 78 2.3 SE 7 11 4 6 1020.3 1020.3 0.0
11/08:00pm 18.6 18.3 14.5 77 2.4 SSE 9 13 5 7 1020.3 1020.3 0.0
11/07:30pm 18.8 18.2 14.7 77 2.4 SSE 11 17 6 9 1020.1 1020.1 0.0
11/07:00pm 18.8 17.8 14.5 76 2.5 SE 13 20 7 11 1019.8 1019.8 0.0
11/06:30pm 19.1 18.6 14.8 76 2.5 SE 11 17 6 9 1019.4 1019.4 0.0
11/06:00pm 19.2 18.3 14.9 76 2.5 SE 13 17 7 9 1019.1 1019.1 0.0
11/05:30pm 19.4 18.5 14.9 75 2.6 SE 13 20 7 11 1019.0 1019.0 0.0
11/05:00pm 19.2 18.2 14.7 75 2.6 SE 13 20 7 11 1019.1 1019.1 0.0
11/04:30pm 19.3 18.0 14.8 75 2.6 SE 15 20 8 11 1019.1 1019.1 0.0
11/04:00pm 19.2 17.9 14.9 76 2.5 SE 15 26 8 14 1019.1 1019.1 0.0
11/03:30pm 19.7 18.8 14.9 74 2.8 SE 13 20 7 11 1019.2 1019.2 0.0
11/03:00pm 20.2 19.8 15.2 73 2.9 ESE 11 17 6 9 1019.3 1019.3 0.0
11/02:30pm 20.2 19.4 15.2 73 2.9 ESE 13 20 7 11 1019.4 1019.4 0.0
11/02:00pm 20.4 19.6 15.2 72 3.1 SE 13 20 7 11 1019.6 1019.6 0.0
11/01:30pm 20.1 19.2 14.9 72 3.0 ESE 13 19 7 10 1019.6 1019.6 0.0
11/01:00pm 20.6 19.9 15.4 72 3.1 ESE 13 17 7 9 1019.9 1019.9 0.0
11/12:30pm 20.6 20.2 15.2 71 3.2 ESE 11 17 6 9 1020.1 1020.1 0.0
11/12:00pm 20.9 20.4 15.9 73 3.0 ESE 13 17 7 9 1020.3 1020.3 0.0
11/11:30am 20.1 19.4 15.5 75 2.7 ESE 13 19 7 10 1020.6 1020.6 0.0
11/11:00am 20.3 19.6 15.3 73 2.9 E 13 19 7 10 1020.7 1020.7 0.0
11/10:46am 21.0 21.0 16.2 74 2.9 E 11 17 6 9 1020.8 1020.8 0.0
11/10:30am 20.5 20.1 15.1 71 3.2 ESE 11 17 6 9 1020.8 1020.8 0.0
11/10:00am 20.3 20.9 15.3 73 2.9 ESE 6 15 3 8 1020.9 1020.9 0.0
11/09:30am 18.9 20.7 15.4 80 2.1 CALM 0 0 0 0 1021.2 1021.2 0.0
11/09:00am 18.1 19.6 14.6 80 2.0 CALM 0 0 0 0 1021.4 1021.4 0.0
11/08:30am 18.3 19.9 15.0 81 1.9 CALM 0 0 0 0 1021.3 1021.3 0.0
11/08:00am 17.9 19.5 14.8 82 1.8 CALM 0 0 0 0 1021.0 1021.0 0.0
11/07:58am 18.0 19.7 15.1 83 1.7 CALM 0 0 0 0 1021.0 1021.0 0.0
11/07:30am 17.9 19.5 14.8 82 1.8 CALM 0 0 0 0 1020.9 1020.9 0.0
11/07:00am 17.7 19.3 14.8 83 1.7 CALM 0 0 0 0 1020.7 1020.7 0.0
11/06:38am 17.6 19.2 14.9 84 1.6 CALM 0 0 0 0 1020.5 1020.5 0.0
11/06:30am 17.4 18.8 14.5 83 1.7 CALM 0 0 0 0 1020.5 1020.5 0.0
11/06:00am 17.3 18.8 14.6 84 1.5 CALM 0 0 0 0 1020.3 1020.3 0.0
11/05:30am 17.1 18.8 15.1 88 1.2 CALM 0 0 0 0 1020.2 1020.2 0.0
11/05:00am 17.0 18.7 15.2 89 1.0 CALM 0 0 0 0 1020.0 1020.0 0.0
11/04:30am 17.0 18.7 15.2 89 1.0 CALM 0 0 0 0 1019.8 1019.8 0.0
11/04:00am 17.0 18.7 15.3 90 1.0 CALM 0 0 0 0 1019.6 1019.6 0.0
11/03:30am 16.9 18.6 15.2 90 1.0 CALM 0 0 0 0 1019.7 1019.7 0.0
11/03:00am 16.6 18.3 15.3 92 0.8 CALM 0 0 0 0 1019.8 1019.8 0.0
11/02:57am 16.5 18.2 15.2 92 0.8 CALM 0 0 0 0 1019.8 1019.8 0.0
11/02:30am 16.4 18.0 14.8 90 0.9 CALM 0 0 0 0 1020.1 1020.1 0.0
11/02:00am 16.9 18.5 14.9 88 1.2 CALM 0 0 0 0 1020.4 1020.4 0.0
11/01:30am 17.5 19.2 15.3 87 1.3 CALM 0 0 0 0 1020.7 1020.7 0.0
11/01:00am 17.3 18.9 14.9 86 1.4 CALM 0 0 0 0 1021.2 1021.2 0.0
11/12:30am 18.0 19.7 15.1 83 1.7 CALM 0 0 0 0 1021.6 1021.6 0.0
11/12:00am 18.6 20.5 15.7 83 1.7 CALM 0 0 0 0 1021.9 1021.9 0.0
 
Date/Time
EDT
Temp
°C
App
Temp
°C
Dew
Point
°C
Rel
Hum
%
Delta-T
°C
Wind Press
QNH
hPa
Press
MSL
hPa
Rain since
9am
mm
Dir  Spd
km/h
Gust
km/h
Spd
kts
Gust
kts
10/11:30pm 18.6 19.3 15.5 82 1.8 NW 6 7 3 4 1022.0 1022.0 0.0
10/11:00pm 18.7 20.5 15.6 82 1.8 CALM 0 0 0 0 1022.2 1022.2 0.0
10/10:43pm 18.7 20.5 15.4 81 1.9 CALM 0 0 0 0 1022.2 1022.2 0.0
10/10:30pm 18.7 20.5 15.4 81 1.9 CALM 0 0 0 0 1022.2 1022.2 0.0
10/10:00pm 18.6 20.4 15.5 82 1.8 CALM 0 0 0 0 1022.2 1022.2 0.0
10/09:30pm 18.4 20.0 14.9 80 2.0 CALM 0 0 0 0 1022.0 1022.0 0.0
10/09:00pm 18.7 19.6 15.0 79 2.2 SSE 4 7 2 4 1021.9 1021.9 0.0
10/08:30pm 19.1 20.4 15.2 78 2.3 NNW 2 7 1 4 1021.7 1021.7 0.0
10/08:00pm 19.2 20.8 14.9 76 2.5 CALM 0 0 0 0 1021.8 1021.8 0.0
10/07:30pm 19.3 19.6 15.0 76 2.5 SSE 7 11 4 6 1021.6 1021.6 0.0
10/07:00pm 19.4 19.3 14.9 75 2.6 SE 9 11 5 6 1021.5 1021.5 0.0
10/06:30pm 19.5 19.5 15.2 76 2.5 SE 9 11 5 6 1021.2 1021.2 0.0
10/06:00pm 19.7 19.6 14.9 74 2.8 SE 9 13 5 7 1020.9 1020.9 0.0
10/05:30pm 19.9 19.5 15.1 74 2.8 ESE 11 15 6 8 1020.9 1020.9 0.0
10/05:00pm 20.2 19.8 15.2 73 2.9 ESE 11 19 6 10 1020.8 1020.8 0.0
10/04:30pm 21.1 21.0 16.1 73 3.0 E 11 19 6 10 1020.7 1020.7 0.0
10/04:00pm 21.1 20.0 15.4 70 3.4 E 15 22 8 12 1020.9 1020.9 0.0
10/03:30pm 20.9 20.2 15.4 71 3.3 E 13 20 7 11 1020.9 1020.9 0.0
10/03:00pm 20.7 20.0 15.5 72 3.1 E 13 20 7 11 1021.0 1021.0 0.0
10/02:30pm 21.5 20.6 15.8 70 3.4 E 15 20 8 11 1021.1 1021.1 0.0
10/02:00pm 21.9 21.1 16.2 70 3.4 E 15 20 8 11 1021.2 1021.2 0.0
10/01:30pm 21.2 19.5 14.8 67 3.8 E 17 24 9 13 1021.4 1021.4 0.0
10/01:00pm 22.0 21.1 15.8 68 3.7 E 15 20 8 11 1021.7 1021.7 0.0
10/12:30pm 21.7 20.8 14.8 65 4.1 E 13 20 7 11 1022.1 1022.1 0.0
10/12:00pm 22.4 21.0 15.5 65 4.1 E 17 24 9 13 1022.1 1022.1 0.0
10/11:30am 21.8 20.8 15.6 68 3.7 E 15 22 8 12 1022.2 1022.2 0.0
10/11:00am 20.3 19.3 14.7 70 3.3 E 13 20 7 11 1022.3 1022.3 0.0
10/10:30am 20.5 19.5 14.6 69 3.4 ESE 13 19 7 10 1022.3 1022.3 0.0
10/10:00am 20.2 18.9 13.6 66 3.8 ESE 13 20 7 11 1022.3 1022.3 0.0
10/09:30am 20.9 20.0 13.6 63 4.2 ESE 11 17 6 9 1022.3 1022.3 0.0
10/09:00am 20.3 19.8 12.8 62 4.2 SE 7 13 4 7 1022.4 1022.4 0.0
10/08:30am 20.3 21.4 13.5 65 3.9 CALM 0 0 0 0 1022.4 1022.4 0.0
10/08:00am 18.5 19.6 13.6 73 2.8 CALM 0 0 0 0 1022.3 1022.3 0.0
10/07:30am 17.0 18.1 13.5 80 2.0 CALM 0 0 0 0 1022.3 1022.3 0.0
10/07:00am 14.9 15.8 12.9 88 1.1 CALM 0 0 0 0 1022.0 1022.0 0.0
10/06:30am 13.2 13.9 12.3 94 0.5 CALM 0 0 0 0 1021.8 1021.8 0.0
10/06:00am 12.5 12.9 11.4 93 0.6 CALM 0 0 0 0 1021.6 1021.6 0.0
10/05:30am 12.5 12.9 11.4 93 0.6 CALM 0 0 0 0 1021.5 1021.5 0.0
10/05:00am 12.7 13.2 11.6 93 0.6 CALM 0 0 0 0 1021.4 1021.4 0.0
10/04:30am 12.7 13.1 11.4 92 0.7 CALM 0 0 0 0 1021.4 1021.4 0.0
10/04:00am 12.9 13.4 11.5 91 0.7 CALM 0 0 0 0 1021.6 1021.6 0.0
10/03:30am 13.2 13.8 11.8 91 0.7 CALM 0 0 0 0 1021.7 1021.7 0.0
10/03:00am 13.4 12.8 11.8 90 0.9 SW 6 7 3 4 1021.8 1021.8 0.0
10/02:30am 13.8 13.1 12.0 89 1.0 SSW 7 9 4 5 1021.8 1021.8 0.0
10/02:00am 14.2 13.5 12.1 87 1.1 SSW 7 9 4 5 1021.9 1021.9 0.0
10/01:30am 14.4 13.3 12.1 86 1.2 SSW 9 11 5 6 1022.0 1022.0 0.0
10/01:00am 14.9 15.7 12.6 86 1.3 CALM 0 0 0 0 1022.1 1022.1 0.0

Other Formats:

Comma delimited format used in spreadsheet applications
http://www.bom.gov.au/fwo/IDN60801/IDN60801.95929.axf

JavaScript Object Notation format (JSON) in row-major order
http://www.bom.gov.au/fwo/IDN60801/IDN60801.95929.json